AUA373Z LOWW-LFMN
Flight info
| Callsign | AUA373Z |
|---|---|
| Flight time | 1h 32m |
| Altitude | 32000 |
| Route | RUPET DCT GRZ DCT RADLY/N0453F350 DCT BARPI/N0453F340 DCT MONFA/N0452F350 DCT BABAG DCT ARDAM DCT BIKTU DCT TOBGA/N0451F340 DCT DOBIM/N0456F300 DCT AKUTI R16 KERIT |
| Aircraft | A320/M-SDE3FGHIRWY/LB1 |
Departure
| Time | 2026-05-06 19:08 |
|---|---|
| Airport | Vienna International Airport (LOWW) |
Arrival
| Time | 2026-05-06 20:40 |
|---|---|
| Airport | Nice-Côte d'Azur Airport (LFMN) |
| Time | Latitude | Longitude | Altitude | Speed | Heading |
|---|---|---|---|---|---|
| 2026-05-06 18:41 | 48.11387 | 16.57248 | 615 ft | 0 kts | 204° |
| 2026-05-06 18:57 | 48.11374 | 16.57239 | 624 ft | 5 kts | 206° |
| 2026-05-06 18:58 | 48.11339 | 16.57170 | 610 ft | 13 kts | 274° |
| 2026-05-06 18:58 | 48.11382 | 16.57025 | 620 ft | 15 kts | 296° |
| 2026-05-06 18:58 | 48.11429 | 16.56881 | 625 ft | 18 kts | 296° |
| 2026-05-06 18:58 | 48.11485 | 16.56709 | 610 ft | 18 kts | 296° |
| 2026-05-06 18:59 | 48.11537 | 16.56550 | 627 ft | 16 kts | 296° |
| 2026-05-06 18:59 | 48.11557 | 16.56402 | 619 ft | 14 kts | 234° |
| 2026-05-06 18:59 | 48.11533 | 16.56277 | 616 ft | 14 kts | 294° |
| 2026-05-06 18:59 | 48.11577 | 16.56147 | 618 ft | 15 kts | 296° |
| 2026-05-06 19:00 | 48.11631 | 16.55981 | 614 ft | 19 kts | 296° |
| 2026-05-06 19:00 | 48.11690 | 16.55798 | 615 ft | 20 kts | 296° |
| 2026-05-06 19:00 | 48.11756 | 16.55593 | 615 ft | 23 kts | 296° |
| 2026-05-06 19:00 | 48.11830 | 16.55369 | 618 ft | 25 kts | 296° |
| 2026-05-06 19:01 | 48.11906 | 16.55131 | 619 ft | 25 kts | 296° |
| 2026-05-06 19:01 | 48.11982 | 16.54901 | 619 ft | 24 kts | 296° |
| 2026-05-06 19:01 | 48.12055 | 16.54676 | 615 ft | 26 kts | 296° |
| 2026-05-06 19:01 | 48.12143 | 16.54406 | 621 ft | 32 kts | 296° |
| 2026-05-06 19:02 | 48.12241 | 16.54106 | 620 ft | 32 kts | 296° |
| 2026-05-06 19:02 | 48.12331 | 16.53827 | 626 ft | 30 kts | 296° |
| 2026-05-06 19:02 | 48.12406 | 16.53601 | 619 ft | 23 kts | 296° |
| 2026-05-06 19:02 | 48.12412 | 16.53448 | 619 ft | 15 kts | 217° |
| 2026-05-06 19:03 | 48.12390 | 16.53432 | 616 ft | 0 kts | 204° |
| 2026-05-06 19:05 | 48.12389 | 16.53432 | 616 ft | 1 kts | 204° |
| 2026-05-06 19:05 | 48.12364 | 16.53415 | 622 ft | 9 kts | 204° |
| 2026-05-06 19:05 | 48.12288 | 16.53366 | 615 ft | 8 kts | 192° |
| 2026-05-06 19:05 | 48.12257 | 16.53413 | 620 ft | 0 kts | 116° |
| 2026-05-06 19:06 | 48.12257 | 16.53414 | 619 ft | 0 kts | 116° |
| 2026-05-06 19:06 | 48.12257 | 16.53415 | 619 ft | 0 kts | 116° |
| 2026-05-06 19:07 | 48.12256 | 16.53417 | 618 ft | 2 kts | 116° |
| 2026-05-06 19:07 | 48.12169 | 16.53683 | 621 ft | 66 kts | 116° |
| 2026-05-06 19:07 | 48.11868 | 16.54608 | 619 ft | 129 kts | 116° |
| 2026-05-06 19:07 | 48.11403 | 16.55949 | 944 ft | 151 kts | 121° |
| 2026-05-06 19:08 | 48.10933 | 16.57362 | 1727 ft | 151 kts | 127° |
| 2026-05-06 19:08 | 48.10437 | 16.58836 | 2195 ft | 169 kts | 129° |
| 2026-05-06 19:08 | 48.09868 | 16.60517 | 2561 ft | 192 kts | 127° |
| 2026-05-06 19:08 | 48.09237 | 16.62396 | 2995 ft | 212 kts | 126° |
| 2026-05-06 19:09 | 48.08581 | 16.64386 | 3701 ft | 220 kts | 125° |
| 2026-05-06 19:09 | 48.07901 | 16.66482 | 4503 ft | 226 kts | 124° |
| 2026-05-06 19:09 | 48.07130 | 16.68572 | 5117 ft | 235 kts | 138° |
| 2026-05-06 19:09 | 48.05816 | 16.70047 | 5536 ft | 243 kts | 166° |
| 2026-05-06 19:10 | 48.04130 | 16.70303 | 6184 ft | 247 kts | 194° |
| 2026-05-06 19:10 | 48.02587 | 16.69234 | 7032 ft | 249 kts | 221° |
| 2026-05-06 19:10 | 48.01610 | 16.67087 | 7904 ft | 257 kts | 248° |
| 2026-05-06 19:10 | 48.01072 | 16.64512 | 8826 ft | 262 kts | 251° |
| 2026-05-06 19:11 | 48.00556 | 16.61893 | 9753 ft | 266 kts | 251° |
| 2026-05-06 19:11 | 48.00028 | 16.59198 | 10387 ft | 280 kts | 251° |
| 2026-05-06 19:11 | 47.99451 | 16.56289 | 10720 ft | 304 kts | 251° |
| 2026-05-06 19:11 | 47.98822 | 16.53156 | 11039 ft | 325 kts | 251° |
| 2026-05-06 19:12 | 47.98161 | 16.49870 | 11657 ft | 334 kts | 251° |
| 2026-05-06 19:12 | 47.97488 | 16.46521 | 12388 ft | 340 kts | 251° |
| 2026-05-06 19:12 | 47.96804 | 16.43110 | 13166 ft | 344 kts | 251° |
| 2026-05-06 19:12 | 47.96113 | 16.39666 | 13897 ft | 349 kts | 251° |
| 2026-05-06 19:13 | 47.95411 | 16.36191 | 14583 ft | 352 kts | 251° |
| 2026-05-06 19:13 | 47.94696 | 16.32667 | 15285 ft | 356 kts | 250° |
| 2026-05-06 19:13 | 47.93972 | 16.29115 | 15985 ft | 360 kts | 251° |
| 2026-05-06 19:13 | 47.93241 | 16.25526 | 16631 ft | 364 kts | 251° |
| 2026-05-06 19:14 | 47.92510 | 16.21946 | 17295 ft | 367 kts | 251° |
| 2026-05-06 19:14 | 47.91760 | 16.18284 | 17939 ft | 370 kts | 251° |
| 2026-05-06 19:14 | 47.90919 | 16.14640 | 18511 ft | 372 kts | 243° |
| 2026-05-06 19:14 | 47.89479 | 16.11455 | 19083 ft | 372 kts | 226° |
| 2026-05-06 19:15 | 47.87433 | 16.09076 | 19616 ft | 375 kts | 212° |
| 2026-05-06 19:15 | 47.85190 | 16.07076 | 20181 ft | 379 kts | 211° |
| 2026-05-06 19:15 | 47.82920 | 16.05083 | 20741 ft | 381 kts | 211° |
| 2026-05-06 19:15 | 47.80623 | 16.03078 | 21295 ft | 383 kts | 211° |
| 2026-05-06 19:16 | 47.78315 | 16.01058 | 21851 ft | 386 kts | 211° |
| 2026-05-06 19:16 | 47.76000 | 15.99029 | 22401 ft | 389 kts | 211° |
| 2026-05-06 19:16 | 47.73668 | 15.96979 | 22929 ft | 391 kts | 211° |
| 2026-05-06 19:16 | 47.71314 | 15.94907 | 23437 ft | 393 kts | 211° |
| 2026-05-06 19:17 | 47.68958 | 15.92838 | 23885 ft | 395 kts | 211° |
| 2026-05-06 19:17 | 47.66586 | 15.90759 | 24304 ft | 398 kts | 211° |
| 2026-05-06 19:17 | 47.64181 | 15.88655 | 24723 ft | 400 kts | 211° |
| 2026-05-06 19:17 | 47.61782 | 15.86560 | 25178 ft | 401 kts | 211° |
| 2026-05-06 19:18 | 47.59374 | 15.84456 | 25608 ft | 403 kts | 211° |
| 2026-05-06 19:18 | 47.56954 | 15.82339 | 26022 ft | 405 kts | 211° |
| 2026-05-06 19:18 | 47.54553 | 15.80237 | 26413 ft | 407 kts | 212° |
| 2026-05-06 19:18 | 47.52103 | 15.78095 | 26807 ft | 410 kts | 212° |
| 2026-05-06 19:19 | 47.49639 | 15.75944 | 27180 ft | 413 kts | 212° |
| 2026-05-06 19:19 | 47.47155 | 15.73804 | 27553 ft | 415 kts | 209° |
| 2026-05-06 19:19 | 47.44488 | 15.72074 | 27929 ft | 419 kts | 203° |
| 2026-05-06 19:19 | 47.41722 | 15.70534 | 28305 ft | 421 kts | 202° |
| 2026-05-06 19:20 | 47.38975 | 15.69008 | 28663 ft | 423 kts | 203° |
| 2026-05-06 19:20 | 47.36240 | 15.67487 | 29003 ft | 425 kts | 203° |
| 2026-05-06 19:20 | 47.33478 | 15.65949 | 29294 ft | 428 kts | 203° |
| 2026-05-06 19:20 | 47.30686 | 15.64393 | 29611 ft | 430 kts | 204° |
| 2026-05-06 19:21 | 47.27883 | 15.62832 | 29975 ft | 430 kts | 204° |
| 2026-05-06 19:21 | 47.25074 | 15.61270 | 30411 ft | 428 kts | 204° |
| 2026-05-06 19:21 | 47.22299 | 15.59729 | 30845 ft | 427 kts | 204° |
| 2026-05-06 19:21 | 47.19532 | 15.58196 | 31271 ft | 425 kts | 204° |
| 2026-05-06 19:22 | 47.16764 | 15.56665 | 31692 ft | 423 kts | 204° |
| 2026-05-06 19:22 | 47.14014 | 15.55143 | 31819 ft | 423 kts | 204° |
| 2026-05-06 19:22 | 47.11277 | 15.53628 | 31867 ft | 420 kts | 204° |
| 2026-05-06 19:23 | 47.05819 | 15.50609 | 31864 ft | 418 kts | 204° |
| 2026-05-06 19:23 | 47.00368 | 15.47604 | 31866 ft | 418 kts | 204° |
| 2026-05-06 19:24 | 46.95005 | 15.44519 | 31864 ft | 414 kts | 210° |
| 2026-05-06 19:24 | 46.89941 | 15.40555 | 31865 ft | 412 kts | 211° |
| 2026-05-06 19:25 | 46.84868 | 15.36595 | 31863 ft | 412 kts | 211° |
| 2026-05-06 19:25 | 46.79818 | 15.32672 | 31861 ft | 412 kts | 211° |
| 2026-05-06 19:26 | 46.74751 | 15.28735 | 31860 ft | 411 kts | 211° |
| 2026-05-06 19:26 | 46.69705 | 15.24815 | 31870 ft | 411 kts | 211° |
| 2026-05-06 19:27 | 46.64838 | 15.20595 | 31876 ft | 407 kts | 220° |
| 2026-05-06 19:27 | 46.60901 | 15.14723 | 31886 ft | 405 kts | 229° |
| 2026-05-06 19:28 | 46.57157 | 15.08593 | 31890 ft | 405 kts | 229° |
| 2026-05-06 19:28 | 46.53403 | 15.02487 | 31898 ft | 405 kts | 229° |
| 2026-05-06 19:29 | 46.49655 | 14.96400 | 31896 ft | 403 kts | 229° |
| 2026-05-06 19:29 | 46.45929 | 14.90351 | 31901 ft | 404 kts | 229° |
| 2026-05-06 19:30 | 46.42181 | 14.84284 | 31890 ft | 404 kts | 229° |
| 2026-05-06 19:30 | 46.38428 | 14.78207 | 31902 ft | 405 kts | 229° |
| 2026-05-06 19:31 | 46.34665 | 14.72132 | 31919 ft | 405 kts | 229° |
| 2026-05-06 19:31 | 46.29019 | 14.63043 | 31933 ft | 406 kts | 229° |
| 2026-05-06 19:32 | 46.25863 | 14.58002 | 31935 ft | 405 kts | 228° |
| 2026-05-06 19:32 | 46.22088 | 14.51982 | 31939 ft | 404 kts | 228° |
| 2026-05-06 19:33 | 46.18326 | 14.45968 | 31968 ft | 403 kts | 228° |
| 2026-05-06 19:33 | 46.14575 | 14.39981 | 31964 ft | 402 kts | 228° |
| 2026-05-06 19:34 | 46.10832 | 14.34019 | 31952 ft | 401 kts | 228° |
| 2026-05-06 19:34 | 46.07099 | 14.28097 | 31952 ft | 401 kts | 228° |
| 2026-05-06 19:35 | 46.03347 | 14.22171 | 31955 ft | 400 kts | 228° |
| 2026-05-06 19:35 | 45.99605 | 14.16270 | 31951 ft | 399 kts | 228° |
| 2026-05-06 19:36 | 45.95866 | 14.10372 | 31943 ft | 398 kts | 228° |
| 2026-05-06 19:36 | 45.92135 | 14.04495 | 31943 ft | 398 kts | 228° |
| 2026-05-06 19:37 | 45.88405 | 13.98644 | 31923 ft | 397 kts | 228° |
| 2026-05-06 19:37 | 45.84674 | 13.92802 | 31920 ft | 397 kts | 228° |
| 2026-05-06 19:38 | 45.80940 | 13.86971 | 31975 ft | 396 kts | 228° |
| 2026-05-06 19:38 | 45.77226 | 13.81176 | 31970 ft | 394 kts | 228° |
| 2026-05-06 19:39 | 45.73524 | 13.75415 | 31949 ft | 393 kts | 228° |
| 2026-05-06 19:39 | 45.69817 | 13.69671 | 31949 ft | 392 kts | 227° |
| 2026-05-06 19:40 | 45.66145 | 13.63977 | 31950 ft | 391 kts | 228° |
| 2026-05-06 19:40 | 45.62452 | 13.58260 | 31947 ft | 391 kts | 227° |
| 2026-05-06 19:41 | 45.58805 | 13.52503 | 31944 ft | 391 kts | 232° |
| 2026-05-06 19:41 | 45.55983 | 13.45892 | 31944 ft | 391 kts | 239° |
| 2026-05-06 19:42 | 45.53265 | 13.39131 | 31938 ft | 391 kts | 238° |
| 2026-05-06 19:42 | 45.50554 | 13.32428 | 31962 ft | 391 kts | 238° |
| 2026-05-06 19:43 | 45.47546 | 13.26070 | 32075 ft | 392 kts | 227° |
| 2026-05-06 19:43 | 45.45663 | 13.23268 | 32432 ft | 392 kts | 226° |
| 2026-05-06 19:43 | 45.43793 | 13.20475 | 32850 ft | 390 kts | 226° |
| 2026-05-06 19:44 | 45.41938 | 13.17669 | 33294 ft | 388 kts | 227° |
| 2026-05-06 19:44 | 45.40095 | 13.14863 | 33691 ft | 387 kts | 227° |
| 2026-05-06 19:44 | 45.38157 | 13.12195 | 34056 ft | 387 kts | 221° |
| 2026-05-06 19:44 | 45.36040 | 13.09862 | 34360 ft | 387 kts | 219° |
| 2026-05-06 19:45 | 45.33878 | 13.07558 | 34647 ft | 388 kts | 219° |
| 2026-05-06 19:45 | 45.31709 | 13.05245 | 34866 ft | 390 kts | 219° |
| 2026-05-06 19:45 | 45.27368 | 13.00627 | 34915 ft | 390 kts | 219° |
| 2026-05-06 19:46 | 45.23015 | 12.96005 | 34907 ft | 391 kts | 219° |
| 2026-05-06 19:46 | 45.18661 | 12.91399 | 34918 ft | 391 kts | 219° |
| 2026-05-06 19:47 | 45.14319 | 12.86805 | 34918 ft | 391 kts | 219° |
| 2026-05-06 19:47 | 45.09946 | 12.82190 | 34908 ft | 392 kts | 219° |
| 2026-05-06 19:48 | 45.05585 | 12.77594 | 34896 ft | 392 kts | 219° |
| 2026-05-06 19:48 | 45.01212 | 12.72989 | 34898 ft | 392 kts | 219° |
| 2026-05-06 19:49 | 44.96838 | 12.68393 | 34932 ft | 392 kts | 218° |
| 2026-05-06 19:49 | 44.92461 | 12.63815 | 34929 ft | 392 kts | 218° |
| 2026-05-06 19:50 | 44.88083 | 12.59238 | 34913 ft | 391 kts | 218° |
| 2026-05-06 19:50 | 44.83703 | 12.54669 | 34907 ft | 392 kts | 218° |
| 2026-05-06 19:51 | 44.79326 | 12.50091 | 34905 ft | 392 kts | 219° |
| 2026-05-06 19:51 | 44.75155 | 12.45146 | 34908 ft | 392 kts | 223° |
| 2026-05-06 19:52 | 44.71124 | 12.39999 | 34910 ft | 391 kts | 223° |
| 2026-05-06 19:52 | 44.67066 | 12.34883 | 34895 ft | 391 kts | 223° |
| 2026-05-06 19:53 | 44.62976 | 12.29838 | 34901 ft | 391 kts | 222° |
| 2026-05-06 19:53 | 44.58892 | 12.24852 | 34904 ft | 392 kts | 222° |
| 2026-05-06 19:54 | 44.54776 | 12.19831 | 34908 ft | 392 kts | 222° |
| 2026-05-06 19:54 | 44.50670 | 12.14809 | 34912 ft | 392 kts | 222° |
| 2026-05-06 19:55 | 44.46559 | 12.09786 | 34919 ft | 392 kts | 222° |
| 2026-05-06 19:55 | 44.42454 | 12.04781 | 34957 ft | 392 kts | 222° |
| 2026-05-06 19:56 | 44.38345 | 11.99787 | 34951 ft | 391 kts | 222° |
| 2026-05-06 19:56 | 44.34244 | 11.94813 | 34958 ft | 390 kts | 222° |
| 2026-05-06 19:57 | 44.30149 | 11.89863 | 34956 ft | 388 kts | 222° |
| 2026-05-06 19:57 | 44.26074 | 11.84945 | 34947 ft | 387 kts | 221° |
| 2026-05-06 19:58 | 44.22008 | 11.80036 | 34946 ft | 386 kts | 221° |
| 2026-05-06 19:58 | 44.17941 | 11.75135 | 34947 ft | 386 kts | 221° |
| 2026-05-06 19:59 | 44.13877 | 11.70249 | 34941 ft | 385 kts | 221° |
| 2026-05-06 19:59 | 44.09855 | 11.65314 | 34952 ft | 385 kts | 227° |
| 2026-05-06 20:00 | 44.06450 | 11.59558 | 34968 ft | 385 kts | 230° |
| 2026-05-06 20:00 | 44.03077 | 11.53789 | 34946 ft | 385 kts | 230° |
| 2026-05-06 20:01 | 43.99725 | 11.48048 | 34918 ft | 386 kts | 230° |
| 2026-05-06 20:01 | 43.96333 | 11.42242 | 34931 ft | 388 kts | 230° |
| 2026-05-06 20:02 | 43.92903 | 11.36401 | 34931 ft | 388 kts | 230° |
| 2026-05-06 20:02 | 43.89506 | 11.30626 | 34944 ft | 389 kts | 230° |
| 2026-05-06 20:03 | 43.86082 | 11.24818 | 34936 ft | 389 kts | 230° |
| 2026-05-06 20:03 | 43.82637 | 11.18986 | 34942 ft | 391 kts | 230° |
| 2026-05-06 20:04 | 43.79182 | 11.13144 | 34950 ft | 393 kts | 230° |
| 2026-05-06 20:04 | 43.75717 | 11.07301 | 34952 ft | 393 kts | 230° |
| 2026-05-06 20:05 | 43.72241 | 11.01449 | 34951 ft | 393 kts | 230° |
| 2026-05-06 20:05 | 43.68759 | 10.95608 | 34934 ft | 394 kts | 230° |
| 2026-05-06 20:06 | 43.65281 | 10.89772 | 34939 ft | 394 kts | 230° |
| 2026-05-06 20:06 | 43.61794 | 10.83930 | 34941 ft | 394 kts | 230° |
| 2026-05-06 20:07 | 43.58310 | 10.78111 | 34942 ft | 395 kts | 230° |
| 2026-05-06 20:07 | 43.54810 | 10.72278 | 34943 ft | 394 kts | 230° |
| 2026-05-06 20:08 | 43.51296 | 10.66454 | 34943 ft | 395 kts | 230° |
| 2026-05-06 20:08 | 43.47814 | 10.60678 | 34945 ft | 395 kts | 230° |
| 2026-05-06 20:09 | 43.44304 | 10.54847 | 34971 ft | 396 kts | 230° |
| 2026-05-06 20:09 | 43.40791 | 10.49041 | 34968 ft | 395 kts | 230° |
| 2026-05-06 20:10 | 43.37266 | 10.43228 | 34970 ft | 395 kts | 230° |
| 2026-05-06 20:10 | 43.33747 | 10.37444 | 34947 ft | 395 kts | 230° |
| 2026-05-06 20:11 | 43.30229 | 10.31656 | 34954 ft | 395 kts | 230° |
| 2026-05-06 20:11 | 43.26695 | 10.25859 | 34703 ft | 395 kts | 230° |
| 2026-05-06 20:12 | 43.24932 | 10.22972 | 34466 ft | 395 kts | 230° |
| 2026-05-06 20:12 | 43.23170 | 10.20084 | 34252 ft | 395 kts | 230° |
| 2026-05-06 20:12 | 43.21410 | 10.17204 | 34018 ft | 393 kts | 230° |
| 2026-05-06 20:12 | 43.19658 | 10.14346 | 33751 ft | 392 kts | 230° |
| 2026-05-06 20:13 | 43.17903 | 10.11478 | 33452 ft | 393 kts | 230° |
| 2026-05-06 20:13 | 43.16142 | 10.08605 | 33181 ft | 395 kts | 230° |
| 2026-05-06 20:13 | 43.14369 | 10.05718 | 32917 ft | 396 kts | 230° |
| 2026-05-06 20:13 | 43.12599 | 10.02836 | 32649 ft | 397 kts | 230° |
| 2026-05-06 20:14 | 43.10816 | 9.99941 | 32381 ft | 398 kts | 229° |
| 2026-05-06 20:14 | 43.09030 | 9.97044 | 32120 ft | 398 kts | 229° |
| 2026-05-06 20:14 | 43.07247 | 9.94157 | 31859 ft | 399 kts | 229° |
| 2026-05-06 20:14 | 43.05453 | 9.91253 | 31610 ft | 400 kts | 229° |
| 2026-05-06 20:15 | 43.03654 | 9.88342 | 31368 ft | 401 kts | 229° |
| 2026-05-06 20:15 | 43.01871 | 9.85461 | 31112 ft | 401 kts | 229° |
| 2026-05-06 20:15 | 43.00155 | 9.82469 | 30859 ft | 403 kts | 237° |
| 2026-05-06 20:15 | 42.99030 | 9.78958 | 30613 ft | 408 kts | 252° |
| 2026-05-06 20:16 | 42.98725 | 9.75081 | 30367 ft | 418 kts | 269° |
| 2026-05-06 20:16 | 42.99335 | 9.71164 | 30120 ft | 431 kts | 285° |
| 2026-05-06 20:16 | 43.00508 | 9.67364 | 29862 ft | 435 kts | 287° |
| 2026-05-06 20:16 | 43.01718 | 9.63568 | 29593 ft | 437 kts | 287° |
| 2026-05-06 20:17 | 43.02942 | 9.59756 | 29343 ft | 438 kts | 287° |
| 2026-05-06 20:17 | 43.04163 | 9.55955 | 29058 ft | 437 kts | 287° |
| 2026-05-06 20:17 | 43.05376 | 9.52142 | 28780 ft | 438 kts | 287° |
| 2026-05-06 20:17 | 43.06587 | 9.48319 | 28508 ft | 438 kts | 287° |
| 2026-05-06 20:18 | 43.07795 | 9.44497 | 28262 ft | 438 kts | 287° |
| 2026-05-06 20:18 | 43.08986 | 9.40716 | 27997 ft | 437 kts | 287° |
| 2026-05-06 20:18 | 43.10187 | 9.36903 | 27728 ft | 436 kts | 287° |
| 2026-05-06 20:18 | 43.11384 | 9.33103 | 27468 ft | 434 kts | 287° |
| 2026-05-06 20:19 | 43.12574 | 9.29305 | 27206 ft | 433 kts | 287° |
| 2026-05-06 20:19 | 43.13754 | 9.25521 | 26948 ft | 431 kts | 287° |
| 2026-05-06 20:19 | 43.14927 | 9.21761 | 26689 ft | 429 kts | 287° |
| 2026-05-06 20:19 | 43.16097 | 9.18011 | 26434 ft | 428 kts | 287° |
| 2026-05-06 20:20 | 43.17269 | 9.14263 | 26183 ft | 427 kts | 287° |
| 2026-05-06 20:20 | 43.18435 | 9.10533 | 25941 ft | 425 kts | 287° |
| 2026-05-06 20:20 | 43.19594 | 9.06823 | 25248 ft | 420 kts | 287° |
| 2026-05-06 20:20 | 43.20733 | 9.03166 | 24518 ft | 416 kts | 287° |
| 2026-05-06 20:21 | 43.21859 | 8.99537 | 23810 ft | 411 kts | 287° |
| 2026-05-06 20:21 | 43.22596 | 8.97152 | 23325 ft | 409 kts | 287° |
| 2026-05-06 20:21 | 43.23698 | 8.93577 | 22597 ft | 404 kts | 287° |
| 2026-05-06 20:21 | 43.24781 | 8.90056 | 21956 ft | 397 kts | 287° |
| 2026-05-06 20:22 | 43.25844 | 8.86594 | 21339 ft | 392 kts | 287° |
| 2026-05-06 20:22 | 43.26897 | 8.83174 | 20733 ft | 386 kts | 287° |
| 2026-05-06 20:22 | 43.27937 | 8.79802 | 20160 ft | 381 kts | 288° |
| 2026-05-06 20:22 | 43.28962 | 8.76484 | 19608 ft | 376 kts | 288° |
| 2026-05-06 20:23 | 43.29977 | 8.73198 | 19087 ft | 371 kts | 288° |
| 2026-05-06 20:23 | 43.30977 | 8.69946 | 18576 ft | 367 kts | 288° |
| 2026-05-06 20:23 | 43.31805 | 8.66707 | 18325 ft | 350 kts | 278° |
| 2026-05-06 20:23 | 43.32325 | 8.63441 | 18254 ft | 351 kts | 278° |
| 2026-05-06 20:24 | 43.32856 | 8.60169 | 18169 ft | 352 kts | 278° |
| 2026-05-06 20:24 | 43.33393 | 8.56898 | 18085 ft | 352 kts | 278° |
| 2026-05-06 20:24 | 43.33932 | 8.53611 | 17999 ft | 351 kts | 278° |
| 2026-05-06 20:24 | 43.34458 | 8.50375 | 17921 ft | 351 kts | 278° |
| 2026-05-06 20:25 | 43.34985 | 8.47093 | 17832 ft | 351 kts | 278° |
| 2026-05-06 20:25 | 43.35506 | 8.43829 | 17749 ft | 351 kts | 278° |
| 2026-05-06 20:25 | 43.36026 | 8.40546 | 17657 ft | 350 kts | 278° |
| 2026-05-06 20:25 | 43.36543 | 8.37282 | 17590 ft | 350 kts | 278° |
| 2026-05-06 20:26 | 43.37066 | 8.33969 | 17256 ft | 350 kts | 278° |
| 2026-05-06 20:26 | 43.37575 | 8.30739 | 16764 ft | 349 kts | 279° |
| 2026-05-06 20:26 | 43.38086 | 8.27482 | 16262 ft | 348 kts | 279° |
| 2026-05-06 20:26 | 43.38594 | 8.24255 | 15789 ft | 346 kts | 279° |
| 2026-05-06 20:27 | 43.39105 | 8.21028 | 15263 ft | 344 kts | 279° |
| 2026-05-06 20:27 | 43.39612 | 8.17817 | 14747 ft | 343 kts | 279° |
| 2026-05-06 20:27 | 43.40111 | 8.14617 | 14210 ft | 341 kts | 278° |
| 2026-05-06 20:27 | 43.40603 | 8.11452 | 13671 ft | 340 kts | 278° |
| 2026-05-06 20:28 | 43.41096 | 8.08276 | 13071 ft | 338 kts | 279° |
| 2026-05-06 20:28 | 43.41584 | 8.05138 | 12508 ft | 335 kts | 279° |
| 2026-05-06 20:28 | 43.42067 | 8.02014 | 11924 ft | 333 kts | 279° |
| 2026-05-06 20:28 | 43.42548 | 7.98903 | 11342 ft | 331 kts | 279° |
| 2026-05-06 20:29 | 43.43026 | 7.95812 | 10800 ft | 328 kts | 280° |
| 2026-05-06 20:29 | 43.43490 | 7.92812 | 10652 ft | 312 kts | 281° |
| 2026-05-06 20:29 | 43.43932 | 7.89951 | 10526 ft | 298 kts | 280° |
| 2026-05-06 20:29 | 43.44355 | 7.87217 | 10399 ft | 285 kts | 281° |
| 2026-05-06 20:30 | 43.44979 | 7.84721 | 10260 ft | 277 kts | 293° |
| 2026-05-06 20:30 | 43.46698 | 7.80051 | 9826 ft | 268 kts | 293° |
| 2026-05-06 20:30 | 43.47540 | 7.77771 | 9297 ft | 271 kts | 293° |
| 2026-05-06 20:31 | 43.48389 | 7.75480 | 8957 ft | 267 kts | 293° |
| 2026-05-06 20:31 | 43.49238 | 7.73182 | 8517 ft | 266 kts | 293° |
| 2026-05-06 20:31 | 43.50059 | 7.70946 | 8124 ft | 264 kts | 293° |
| 2026-05-06 20:31 | 43.50881 | 7.68706 | 7723 ft | 262 kts | 293° |
| 2026-05-06 20:32 | 43.51697 | 7.66477 | 7311 ft | 260 kts | 293° |
| 2026-05-06 20:32 | 43.52515 | 7.64245 | 6893 ft | 259 kts | 292° |
| 2026-05-06 20:32 | 43.53327 | 7.62029 | 6456 ft | 259 kts | 293° |
| 2026-05-06 20:32 | 43.54137 | 7.59818 | 5905 ft | 262 kts | 292° |
| 2026-05-06 20:33 | 43.54971 | 7.57537 | 5247 ft | 267 kts | 294° |
| 2026-05-06 20:33 | 43.55775 | 7.55346 | 5050 ft | 242 kts | 294° |
| 2026-05-06 20:33 | 43.56497 | 7.53389 | 4987 ft | 218 kts | 293° |
| 2026-05-06 20:33 | 43.57149 | 7.51621 | 4898 ft | 203 kts | 293° |
| 2026-05-06 20:34 | 43.57777 | 7.49904 | 4831 ft | 199 kts | 292° |
| 2026-05-06 20:34 | 43.58489 | 7.48255 | 4637 ft | 203 kts | 301° |
| 2026-05-06 20:34 | 43.59303 | 7.46655 | 4337 ft | 204 kts | 304° |
| 2026-05-06 20:34 | 43.60097 | 7.45103 | 4064 ft | 204 kts | 304° |
| 2026-05-06 20:35 | 43.60920 | 7.43497 | 3787 ft | 206 kts | 304° |
| 2026-05-06 20:35 | 43.61746 | 7.41883 | 3482 ft | 206 kts | 304° |
| 2026-05-06 20:35 | 43.62557 | 7.40294 | 3196 ft | 198 kts | 304° |
| 2026-05-06 20:35 | 43.63322 | 7.38790 | 2918 ft | 185 kts | 304° |
| 2026-05-06 20:36 | 43.64058 | 7.37344 | 2424 ft | 182 kts | 304° |
| 2026-05-06 20:36 | 43.64772 | 7.35946 | 2124 ft | 170 kts | 304° |
| 2026-05-06 20:36 | 43.65408 | 7.34701 | 2057 ft | 148 kts | 303° |
| 2026-05-06 20:36 | 43.65962 | 7.33612 | 1992 ft | 134 kts | 303° |
| 2026-05-06 20:37 | 43.66484 | 7.32580 | 1809 ft | 133 kts | 301° |
| 2026-05-06 20:37 | 43.67006 | 7.31547 | 1640 ft | 131 kts | 300° |
| 2026-05-06 20:37 | 43.67529 | 7.30522 | 1457 ft | 131 kts | 300° |
| 2026-05-06 20:37 | 43.68058 | 7.29493 | 1281 ft | 132 kts | 301° |
| 2026-05-06 20:38 | 43.68581 | 7.28457 | 1108 ft | 130 kts | 300° |
| 2026-05-06 20:38 | 43.68888 | 7.27316 | 916 ft | 126 kts | 276° |
| 2026-05-06 20:38 | 43.68855 | 7.26123 | 740 ft | 125 kts | 256° |
| 2026-05-06 20:38 | 43.68504 | 7.25032 | 540 ft | 125 kts | 236° |
| 2026-05-06 20:39 | 43.67910 | 7.24159 | 380 ft | 126 kts | 227° |
| 2026-05-06 20:39 | 43.67290 | 7.23311 | 239 ft | 124 kts | 228° |
| 2026-05-06 20:39 | 43.66702 | 7.22498 | 54 ft | 122 kts | 227° |
| 2026-05-06 20:39 | 43.66149 | 7.21731 | 21 ft | 95 kts | 224° |
| 2026-05-06 20:40 | 43.65806 | 7.21261 | 22 ft | 45 kts | 225° |
| 2026-05-06 20:40 | 43.65687 | 7.21098 | 22 ft | 18 kts | 225° |
| 2026-05-06 20:40 | 43.65631 | 7.20968 | 22 ft | 15 kts | 272° |
| 2026-05-06 20:40 | 43.65705 | 7.20883 | 21 ft | 17 kts | 358° |
| 2026-05-06 20:41 | 43.65781 | 7.20867 | 22 ft | 8 kts | 350° |
| 2026-05-06 20:41 | 43.65836 | 7.20854 | 23 ft | 8 kts | 350° |
| 2026-05-06 20:41 | 43.65887 | 7.20842 | 24 ft | 7 kts | 350° |
| 2026-05-06 20:41 | 43.65933 | 7.20826 | 23 ft | 6 kts | 327° |
| 2026-05-06 20:42 | 43.65950 | 7.20770 | 21 ft | 8 kts | 281° |
| 2026-05-06 20:42 | 43.65955 | 7.20735 | 21 ft | 0 kts | 281° |